sensor_id;sensor_type;location;lat;lon;timestamp;P1;durP1;ratioP1;P2;durP2;ratioP2
5333;SDS011;2689;50.954;7.116;2023-03-20T00:01:57;16.97;;;12.67;;
5333;SDS011;2689;50.954;7.116;2023-03-20T00:04:25;11.87;;;6.63;;
5333;SDS011;2689;50.954;7.116;2023-03-20T00:06:53;18.40;;;13.50;;
5333;SDS011;2689;50.954;7.116;2023-03-20T00:09:20;15.87;;;12.27;;
5333;SDS011;2689;50.954;7.116;2023-03-20T00:11:49;20.30;;;13.93;;
5333;SDS011;2689;50.954;7.116;2023-03-20T00:14:20;19.40;;;12.60;;
5333;SDS011;2689;50.954;7.116;2023-03-20T00:16:49;19.90;;;13.80;;
5333;SDS011;2689;50.954;7.116;2023-03-20T00:19:17;20.13;;;13.57;;
5333;SDS011;2689;50.954;7.116;2023-03-20T00:21:47;18.13;;;13.67;;
5333;SDS011;2689;50.954;7.116;2023-03-20T00:24:15;19.03;;;13.07;;
5333;SDS011;2689;50.954;7.116;2023-03-20T00:26:43;18.67;;;14.07;;
5333;SDS011;2689;50.954;7.116;2023-03-20T00:29:13;19.63;;;13.70;;
5333;SDS011;2689;50.954;7.116;2023-03-20T00:31:47;19.20;;;12.80;;
5333;SDS011;2689;50.954;7.116;2023-03-20T00:34:15;20.03;;;14.77;;
5333;SDS011;2689;50.954;7.116;2023-03-20T00:36:43;19.43;;;14.50;;
5333;SDS011;2689;50.954;7.116;2023-03-20T00:39:10;17.77;;;14.80;;
5333;SDS011;2689;50.954;7.116;2023-03-20T00:41:39;21.90;;;14.40;;
5333;SDS011;2689;50.954;7.116;2023-03-20T00:44:19;20.83;;;15.13;;
5333;SDS011;2689;50.954;7.116;2023-03-20T00:46:50;21.97;;;15.20;;
5333;SDS011;2689;50.954;7.116;2023-03-20T00:49:20;18.83;;;13.77;;
5333;SDS011;2689;50.954;7.116;2023-03-20T00:51:52;19.40;;;13.70;;
5333;SDS011;2689;50.954;7.116;2023-03-20T00:54:19;22.80;;;16.80;;
5333;SDS011;2689;50.954;7.116;2023-03-20T00:56:47;17.57;;;14.33;;
5333;SDS011;2689;50.954;7.116;2023-03-20T00:59:21;22.13;;;14.73;;
5333;SDS011;2689;50.954;7.116;2023-03-20T01:01:53;22.23;;;15.63;;
5333;SDS011;2689;50.954;7.116;2023-03-20T01:04:20;21.60;;;15.57;;
5333;SDS011;2689;50.954;7.116;2023-03-20T01:06:47;21.73;;;16.30;;
5333;SDS011;2689;50.954;7.116;2023-03-20T01:09:15;16.80;;;14.00;;
5333;SDS011;2689;50.954;7.116;2023-03-20T01:11:44;27.53;;;13.80;;
5333;SDS011;2689;50.954;7.116;2023-03-20T01:14:11;20.67;;;16.07;;
5333;SDS011;2689;50.954;7.116;2023-03-20T01:16:40;21.93;;;16.03;;
5333;SDS011;2689;50.954;7.116;2023-03-20T01:19:11;23.67;;;15.87;;
5333;SDS011;2689;50.954;7.116;2023-03-20T01:21:39;21.97;;;15.70;;
5333;SDS011;2689;50.954;7.116;2023-03-20T01:24:07;18.67;;;14.53;;
5333;SDS011;2689;50.954;7.116;2023-03-20T01:26:34;21.70;;;14.23;;
5333;SDS011;2689;50.954;7.116;2023-03-20T01:29:03;17.27;;;13.37;;
5333;SDS011;2689;50.954;7.116;2023-03-20T01:31:38;21.23;;;15.87;;
5333;SDS011;2689;50.954;7.116;2023-03-20T01:34:07;23.00;;;14.17;;
5333;SDS011;2689;50.954;7.116;2023-03-20T01:36:37;18.87;;;14.80;;
5333;SDS011;2689;50.954;7.116;2023-03-20T01:39:08;18.67;;;13.30;;
5333;SDS011;2689;50.954;7.116;2023-03-20T01:41:35;16.20;;;12.50;;
5333;SDS011;2689;50.954;7.116;2023-03-20T01:44:14;18.80;;;13.77;;
5333;SDS011;2689;50.954;7.116;2023-03-20T01:46:45;17.67;;;12.73;;
5333;SDS011;2689;50.954;7.116;2023-03-20T01:52:18;16.97;;;12.33;;
5333;SDS011;2689;50.954;7.116;2023-03-20T01:54:45;21.33;;;14.53;;
5333;SDS011;2689;50.954;7.116;2023-03-20T01:57:13;22.97;;;14.40;;
5333;SDS011;2689;50.954;7.116;2023-03-20T01:59:43;18.00;;;12.63;;
5333;SDS011;2689;50.954;7.116;2023-03-20T02:02:13;20.13;;;13.47;;
5333;SDS011;2689;50.954;7.116;2023-03-20T02:04:43;19.80;;;13.77;;
5333;SDS011;2689;50.954;7.116;2023-03-20T02:07:13;22.40;;;15.60;;
5333;SDS011;2689;50.954;7.116;2023-03-20T02:09:46;26.27;;;16.60;;
5333;SDS011;2689;50.954;7.116;2023-03-20T02:12:15;17.50;;;13.27;;
5333;SDS011;2689;50.954;7.116;2023-03-20T02:14:55;19.23;;;14.27;;
5333;SDS011;2689;50.954;7.116;2023-03-20T02:17:22;20.80;;;13.87;;
5333;SDS011;2689;50.954;7.116;2023-03-20T02:19:52;19.20;;;14.90;;
5333;SDS011;2689;50.954;7.116;2023-03-20T02:22:40;19.87;;;14.57;;
5333;SDS011;2689;50.954;7.116;2023-03-20T02:25:44;24.10;;;15.57;;
5333;SDS011;2689;50.954;7.116;2023-03-20T02:31:53;24.80;;;16.10;;
5333;SDS011;2689;50.954;7.116;2023-03-20T02:34:53;23.07;;;16.57;;
5333;SDS011;2689;50.954;7.116;2023-03-20T02:37:39;20.83;;;16.20;;
5333;SDS011;2689;50.954;7.116;2023-03-20T02:40:15;20.27;;;15.37;;
5333;SDS011;2689;50.954;7.116;2023-03-20T02:42:49;21.20;;;14.73;;
5333;SDS011;2689;50.954;7.116;2023-03-20T02:45:25;22.67;;;16.17;;
5333;SDS011;2689;50.954;7.116;2023-03-20T02:47:55;22.00;;;16.67;;
5333;SDS011;2689;50.954;7.116;2023-03-20T02:50:32;23.40;;;14.03;;
5333;SDS011;2689;50.954;7.116;2023-03-20T02:53:11;23.03;;;15.67;;
5333;SDS011;2689;50.954;7.116;2023-03-20T02:55:52;23.17;;;14.93;;
5333;SDS011;2689;50.954;7.116;2023-03-20T02:58:24;22.03;;;15.23;;
5333;SDS011;2689;50.954;7.116;2023-03-20T03:00:54;24.80;;;16.37;;
5333;SDS011;2689;50.954;7.116;2023-03-20T03:03:27;19.37;;;14.50;;
5333;SDS011;2689;50.954;7.116;2023-03-20T03:06:08;21.90;;;15.23;;
5333;SDS011;2689;50.954;7.116;2023-03-20T03:08:48;21.63;;;15.00;;
5333;SDS011;2689;50.954;7.116;2023-03-20T03:11:18;20.83;;;14.30;;
5333;SDS011;2689;50.954;7.116;2023-03-20T03:13:46;22.90;;;16.07;;
5333;SDS011;2689;50.954;7.116;2023-03-20T03:16:17;22.03;;;15.43;;
5333;SDS011;2689;50.954;7.116;2023-03-20T03:18:57;21.00;;;15.53;;
5333;SDS011;2689;50.954;7.116;2023-03-20T03:21:27;24.37;;;14.23;;
5333;SDS011;2689;50.954;7.116;2023-03-20T03:23:57;22.20;;;15.03;;
5333;SDS011;2689;50.954;7.116;2023-03-20T03:26:24;19.50;;;13.63;;
5333;SDS011;2689;50.954;7.116;2023-03-20T03:28:54;24.90;;;15.77;;
5333;SDS011;2689;50.954;7.116;2023-03-20T03:31:23;20.50;;;14.83;;
5333;SDS011;2689;50.954;7.116;2023-03-20T03:33:51;21.53;;;15.20;;
5333;SDS011;2689;50.954;7.116;2023-03-20T03:36:23;21.30;;;14.53;;
5333;SDS011;2689;50.954;7.116;2023-03-20T03:38:58;18.40;;;13.97;;
5333;SDS011;2689;50.954;7.116;2023-03-20T03:41:31;20.67;;;14.50;;
5333;SDS011;2689;50.954;7.116;2023-03-20T03:44:05;24.10;;;15.13;;
5333;SDS011;2689;50.954;7.116;2023-03-20T03:46:41;20.63;;;14.60;;
5333;SDS011;2689;50.954;7.116;2023-03-20T03:49:15;19.60;;;13.70;;
5333;SDS011;2689;50.954;7.116;2023-03-20T03:51:47;19.67;;;14.53;;
5333;SDS011;2689;50.954;7.116;2023-03-20T03:54:19;21.00;;;15.00;;
5333;SDS011;2689;50.954;7.116;2023-03-20T03:56:48;25.47;;;14.50;;
5333;SDS011;2689;50.954;7.116;2023-03-20T03:59:18;20.87;;;15.23;;
5333;SDS011;2689;50.954;7.116;2023-03-20T04:01:48;23.30;;;15.00;;
5333;SDS011;2689;50.954;7.116;2023-03-20T04:04:16;21.60;;;15.33;;
5333;SDS011;2689;50.954;7.116;2023-03-20T04:06:45;22.80;;;14.77;;
5333;SDS011;2689;50.954;7.116;2023-03-20T04:09:15;23.73;;;14.50;;
5333;SDS011;2689;50.954;7.116;2023-03-20T04:11:43;23.53;;;15.40;;
5333;SDS011;2689;50.954;7.116;2023-03-20T04:14:23;19.60;;;15.67;;
5333;SDS011;2689;50.954;7.116;2023-03-20T04:16:50;20.47;;;14.00;;
5333;SDS011;2689;50.954;7.116;2023-03-20T04:19:20;23.83;;;14.70;;
5333;SDS011;2689;50.954;7.116;2023-03-20T04:21:52;22.33;;;15.40;;
5333;SDS011;2689;50.954;7.116;2023-03-20T04:24:22;23.83;;;16.73;;
5333;SDS011;2689;50.954;7.116;2023-03-20T04:29:43;20.07;;;15.20;;
5333;SDS011;2689;50.954;7.116;2023-03-20T04:32:16;20.67;;;14.30;;
5333;SDS011;2689;50.954;7.116;2023-03-20T04:35:02;22.43;;;16.40;;
5333;SDS011;2689;50.954;7.116;2023-03-20T04:37:50;23.60;;;16.00;;
5333;SDS011;2689;50.954;7.116;2023-03-20T04:40:22;23.17;;;16.33;;
5333;SDS011;2689;50.954;7.116;2023-03-20T04:42:50;22.20;;;14.90;;
5333;SDS011;2689;50.954;7.116;2023-03-20T04:45:19;22.17;;;14.90;;
5333;SDS011;2689;50.954;7.116;2023-03-20T04:47:51;22.73;;;15.50;;
5333;SDS011;2689;50.954;7.116;2023-03-20T04:50:19;23.43;;;15.93;;
5333;SDS011;2689;50.954;7.116;2023-03-20T04:52:49;27.30;;;16.20;;
5333;SDS011;2689;50.954;7.116;2023-03-20T04:55:17;20.20;;;14.83;;
5333;SDS011;2689;50.954;7.116;2023-03-20T04:57:53;25.63;;;16.60;;
5333;SDS011;2689;50.954;7.116;2023-03-20T05:00:22;26.27;;;14.87;;
5333;SDS011;2689;50.954;7.116;2023-03-20T05:02:49;24.77;;;15.43;;
5333;SDS011;2689;50.954;7.116;2023-03-20T05:05:18;25.40;;;17.03;;
5333;SDS011;2689;50.954;7.116;2023-03-20T05:07:45;19.40;;;14.20;;
5333;SDS011;2689;50.954;7.116;2023-03-20T05:10:13;20.43;;;14.00;;
5333;SDS011;2689;50.954;7.116;2023-03-20T05:12:41;18.77;;;12.43;;
5333;SDS011;2689;50.954;7.116;2023-03-20T05:15:14;18.77;;;12.33;;
5333;SDS011;2689;50.954;7.116;2023-03-20T05:17:42;20.70;;;12.50;;
5333;SDS011;2689;50.954;7.116;2023-03-20T05:20:11;19.33;;;12.17;;
5333;SDS011;2689;50.954;7.116;2023-03-20T05:22:38;19.40;;;12.83;;
5333;SDS011;2689;50.954;7.116;2023-03-20T05:25:08;17.37;;;11.57;;
5333;SDS011;2689;50.954;7.116;2023-03-20T05:27:35;20.07;;;11.77;;
5333;SDS011;2689;50.954;7.116;2023-03-20T05:30:02;18.70;;;12.27;;
5333;SDS011;2689;50.954;7.116;2023-03-20T05:32:32;20.20;;;12.87;;
5333;SDS011;2689;50.954;7.116;2023-03-20T05:35:06;20.90;;;12.40;;
5333;SDS011;2689;50.954;7.116;2023-03-20T05:37:36;18.03;;;12.20;;
5333;SDS011;2689;50.954;7.116;2023-03-20T05:40:06;18.23;;;12.10;;
5333;SDS011;2689;50.954;7.116;2023-03-20T05:42:44;19.43;;;11.70;;
5333;SDS011;2689;50.954;7.116;2023-03-20T05:45:12;17.60;;;12.07;;
5333;SDS011;2689;50.954;7.116;2023-03-20T05:47:45;18.80;;;11.30;;
5333;SDS011;2689;50.954;7.116;2023-03-20T05:50:12;17.00;;;11.30;;
5333;SDS011;2689;50.954;7.116;2023-03-20T05:52:46;15.60;;;10.90;;
5333;SDS011;2689;50.954;7.116;2023-03-20T05:55:17;19.37;;;12.50;;
5333;SDS011;2689;50.954;7.116;2023-03-20T05:57:45;17.47;;;12.07;;
5333;SDS011;2689;50.954;7.116;2023-03-20T06:00:13;17.23;;;11.47;;
5333;SDS011;2689;50.954;7.116;2023-03-20T06:02:51;16.90;;;10.43;;
5333;SDS011;2689;50.954;7.116;2023-03-20T06:05:22;16.10;;;10.83;;
5333;SDS011;2689;50.954;7.116;2023-03-20T06:07:55;18.40;;;11.73;;
5333;SDS011;2689;50.954;7.116;2023-03-20T06:10:31;18.30;;;11.90;;
5333;SDS011;2689;50.954;7.116;2023-03-20T06:12:59;19.00;;;11.00;;
5333;SDS011;2689;50.954;7.116;2023-03-20T06:15:30;15.70;;;11.03;;
5333;SDS011;2689;50.954;7.116;2023-03-20T06:17:58;19.03;;;11.20;;
5333;SDS011;2689;50.954;7.116;2023-03-20T06:20:28;18.90;;;11.93;;
5333;SDS011;2689;50.954;7.116;2023-03-20T06:22:58;16.70;;;10.60;;
5333;SDS011;2689;50.954;7.116;2023-03-20T06:25:25;17.40;;;11.37;;
5333;SDS011;2689;50.954;7.116;2023-03-20T06:27:52;14.70;;;11.07;;
5333;SDS011;2689;50.954;7.116;2023-03-20T06:30:19;16.17;;;10.70;;
5333;SDS011;2689;50.954;7.116;2023-03-20T06:32:46;16.67;;;11.03;;
5333;SDS011;2689;50.954;7.116;2023-03-20T06:35:14;18.23;;;11.23;;
5333;SDS011;2689;50.954;7.116;2023-03-20T06:37:42;17.57;;;11.50;;
5333;SDS011;2689;50.954;7.116;2023-03-20T06:40:09;17.20;;;11.10;;
5333;SDS011;2689;50.954;7.116;2023-03-20T06:42:42;17.10;;;11.33;;
5333;SDS011;2689;50.954;7.116;2023-03-20T06:45:17;19.00;;;12.37;;
5333;SDS011;2689;50.954;7.116;2023-03-20T06:47:44;15.87;;;11.40;;
5333;SDS011;2689;50.954;7.116;2023-03-20T06:50:17;21.20;;;12.20;;
5333;SDS011;2689;50.954;7.116;2023-03-20T06:52:44;15.83;;;11.83;;
5333;SDS011;2689;50.954;7.116;2023-03-20T06:55:12;17.33;;;12.40;;
5333;SDS011;2689;50.954;7.116;2023-03-20T06:57:39;26.50;;;12.90;;
5333;SDS011;2689;50.954;7.116;2023-03-20T07:00:07;18.57;;;12.80;;
5333;SDS011;2689;50.954;7.116;2023-03-20T07:02:36;16.57;;;12.47;;
5333;SDS011;2689;50.954;7.116;2023-03-20T07:05:03;22.83;;;13.03;;
5333;SDS011;2689;50.954;7.116;2023-03-20T07:07:32;18.57;;;12.87;;
5333;SDS011;2689;50.954;7.116;2023-03-20T07:09:59;19.23;;;14.30;;
5333;SDS011;2689;50.954;7.116;2023-03-20T07:12:32;22.23;;;13.97;;
5333;SDS011;2689;50.954;7.116;2023-03-20T07:14:59;20.70;;;13.50;;
5333;SDS011;2689;50.954;7.116;2023-03-20T07:17:26;18.50;;;14.07;;
5333;SDS011;2689;50.954;7.116;2023-03-20T07:19:53;20.43;;;12.40;;
5333;SDS011;2689;50.954;7.116;2023-03-20T07:22:22;17.50;;;12.17;;
5333;SDS011;2689;50.954;7.116;2023-03-20T07:24:53;19.70;;;12.60;;
5333;SDS011;2689;50.954;7.116;2023-03-20T07:27:21;18.07;;;12.83;;
5333;SDS011;2689;50.954;7.116;2023-03-20T07:29:48;15.50;;;12.00;;
5333;SDS011;2689;50.954;7.116;2023-03-20T07:32:15;16.27;;;12.23;;
5333;SDS011;2689;50.954;7.116;2023-03-20T07:34:42;17.23;;;12.27;;
5333;SDS011;2689;50.954;7.116;2023-03-20T07:37:09;18.07;;;11.60;;
5333;SDS011;2689;50.954;7.116;2023-03-20T07:39:36;17.37;;;12.00;;
5333;SDS011;2689;50.954;7.116;2023-03-20T07:42:05;16.20;;;12.40;;
5333;SDS011;2689;50.954;7.116;2023-03-20T07:44:31;16.53;;;9.97;;
5333;SDS011;2689;50.954;7.116;2023-03-20T07:46:58;12.30;;;9.50;;
5333;SDS011;2689;50.954;7.116;2023-03-20T07:49:25;15.43;;;10.70;;
5333;SDS011;2689;50.954;7.116;2023-03-20T07:51:52;13.07;;;9.57;;
5333;SDS011;2689;50.954;7.116;2023-03-20T07:54:20;16.07;;;10.10;;
5333;SDS011;2689;50.954;7.116;2023-03-20T07:56:47;17.23;;;10.13;;
5333;SDS011;2689;50.954;7.116;2023-03-20T07:59:16;12.20;;;7.43;;
5333;SDS011;2689;50.954;7.116;2023-03-20T08:01:43;9.10;;;7.40;;
5333;SDS011;2689;50.954;7.116;2023-03-20T08:04:10;13.30;;;7.70;;
5333;SDS011;2689;50.954;7.116;2023-03-20T08:06:37;11.67;;;6.63;;
5333;SDS011;2689;50.954;7.116;2023-03-20T08:09:04;10.27;;;6.80;;
5333;SDS011;2689;50.954;7.116;2023-03-20T08:11:31;11.20;;;7.43;;
5333;SDS011;2689;50.954;7.116;2023-03-20T08:13:58;12.30;;;7.37;;
5333;SDS011;2689;50.954;7.116;2023-03-20T08:16:27;11.70;;;6.90;;
5333;SDS011;2689;50.954;7.116;2023-03-20T08:18:53;9.83;;;7.00;;
5333;SDS011;2689;50.954;7.116;2023-03-20T08:21:25;10.53;;;7.40;;
5333;SDS011;2689;50.954;7.116;2023-03-20T08:23:52;8.80;;;6.33;;
5333;SDS011;2689;50.954;7.116;2023-03-20T08:26:19;13.03;;;7.20;;
5333;SDS011;2689;50.954;7.116;2023-03-20T08:28:46;10.03;;;6.97;;
5333;SDS011;2689;50.954;7.116;2023-03-20T08:31:13;10.63;;;7.07;;
5333;SDS011;2689;50.954;7.116;2023-03-20T08:33:41;10.73;;;6.70;;
5333;SDS011;2689;50.954;7.116;2023-03-20T08:36:08;12.30;;;6.50;;
5333;SDS011;2689;50.954;7.116;2023-03-20T08:38:36;6.30;;;4.40;;
5333;SDS011;2689;50.954;7.116;2023-03-20T08:41:03;7.07;;;4.10;;
5333;SDS011;2689;50.954;7.116;2023-03-20T08:43:32;8.60;;;4.67;;
5333;SDS011;2689;50.954;7.116;2023-03-20T08:45:58;7.63;;;4.43;;
5333;SDS011;2689;50.954;7.116;2023-03-20T08:48:25;6.97;;;4.03;;
5333;SDS011;2689;50.954;7.116;2023-03-20T08:50:53;10.67;;;4.30;;
5333;SDS011;2689;50.954;7.116;2023-03-20T08:53:20;9.17;;;6.00;;
5333;SDS011;2689;50.954;7.116;2023-03-20T08:55:47;10.53;;;6.20;;
5333;SDS011;2689;50.954;7.116;2023-03-20T08:58:14;11.57;;;5.60;;
5333;SDS011;2689;50.954;7.116;2023-03-20T09:00:42;13.37;;;7.30;;
5333;SDS011;2689;50.954;7.116;2023-03-20T09:03:10;9.17;;;6.67;;
5333;SDS011;2689;50.954;7.116;2023-03-20T09:05:38;10.33;;;7.10;;
5333;SDS011;2689;50.954;7.116;2023-03-20T09:08:06;15.37;;;7.80;;
5333;SDS011;2689;50.954;7.116;2023-03-20T09:10:33;13.90;;;7.90;;
5333;SDS011;2689;50.954;7.116;2023-03-20T09:13:00;9.33;;;6.27;;
5333;SDS011;2689;50.954;7.116;2023-03-20T09:15:27;10.70;;;6.27;;
5333;SDS011;2689;50.954;7.116;2023-03-20T09:17:54;8.57;;;6.50;;
5333;SDS011;2689;50.954;7.116;2023-03-20T09:20:22;9.40;;;5.77;;
5333;SDS011;2689;50.954;7.116;2023-03-20T09:22:49;10.70;;;6.43;;
5333;SDS011;2689;50.954;7.116;2023-03-20T09:25:17;10.27;;;7.10;;
5333;SDS011;2689;50.954;7.116;2023-03-20T09:27:44;7.53;;;6.10;;
5333;SDS011;2689;50.954;7.116;2023-03-20T09:30:11;12.50;;;7.03;;
5333;SDS011;2689;50.954;7.116;2023-03-20T09:32:38;13.40;;;6.53;;
5333;SDS011;2689;50.954;7.116;2023-03-20T09:35:05;11.10;;;7.17;;
5333;SDS011;2689;50.954;7.116;2023-03-20T09:37:32;10.20;;;5.43;;
5333;SDS011;2689;50.954;7.116;2023-03-20T09:40:02;11.70;;;8.13;;
5333;SDS011;2689;50.954;7.116;2023-03-20T09:42:34;13.33;;;8.13;;
5333;SDS011;2689;50.954;7.116;2023-03-20T09:45:13;14.27;;;7.70;;
5333;SDS011;2689;50.954;7.116;2023-03-20T09:47:46;11.00;;;6.80;;
5333;SDS011;2689;50.954;7.116;2023-03-20T09:50:25;16.00;;;8.97;;
5333;SDS011;2689;50.954;7.116;2023-03-20T09:52:57;10.00;;;7.70;;
5333;SDS011;2689;50.954;7.116;2023-03-20T09:55:32;10.03;;;7.60;;
5333;SDS011;2689;50.954;7.116;2023-03-20T09:58:04;10.13;;;7.73;;
5333;SDS011;2689;50.954;7.116;2023-03-20T10:00:38;10.03;;;7.33;;
5333;SDS011;2689;50.954;7.116;2023-03-20T10:03:10;13.50;;;7.03;;
5333;SDS011;2689;50.954;7.116;2023-03-20T10:05:43;12.03;;;7.57;;
5333;SDS011;2689;50.954;7.116;2023-03-20T10:08:13;10.67;;;6.47;;
5333;SDS011;2689;50.954;7.116;2023-03-20T10:10:43;12.17;;;6.90;;
5333;SDS011;2689;50.954;7.116;2023-03-20T10:13:29;9.73;;;6.47;;
5333;SDS011;2689;50.954;7.116;2023-03-20T10:16:04;9.93;;;6.40;;
5333;SDS011;2689;50.954;7.116;2023-03-20T10:18:39;9.00;;;5.80;;
5333;SDS011;2689;50.954;7.116;2023-03-20T10:21:13;8.73;;;6.90;;
5333;SDS011;2689;50.954;7.116;2023-03-20T10:23:45;8.87;;;6.20;;
5333;SDS011;2689;50.954;7.116;2023-03-20T10:26:19;8.47;;;6.20;;
5333;SDS011;2689;50.954;7.116;2023-03-20T10:28:51;8.17;;;7.00;;
5333;SDS011;2689;50.954;7.116;2023-03-20T10:31:27;8.43;;;4.50;;
5333;SDS011;2689;50.954;7.116;2023-03-20T10:34:07;11.13;;;7.60;;
5333;SDS011;2689;50.954;7.116;2023-03-20T10:36:57;10.50;;;6.70;;
5333;SDS011;2689;50.954;7.116;2023-03-20T10:39:36;13.00;;;7.10;;
5333;SDS011;2689;50.954;7.116;2023-03-20T10:42:15;11.33;;;6.13;;
5333;SDS011;2689;50.954;7.116;2023-03-20T10:44:47;10.20;;;5.93;;
5333;SDS011;2689;50.954;7.116;2023-03-20T10:47:17;6.93;;;5.77;;
5333;SDS011;2689;50.954;7.116;2023-03-20T10:49:49;9.70;;;6.00;;
5333;SDS011;2689;50.954;7.116;2023-03-20T10:52:21;9.23;;;5.60;;
5333;SDS011;2689;50.954;7.116;2023-03-20T10:54:51;11.97;;;6.30;;
5333;SDS011;2689;50.954;7.116;2023-03-20T10:57:22;9.80;;;6.27;;
5333;SDS011;2689;50.954;7.116;2023-03-20T10:59:52;9.03;;;5.17;;
5333;SDS011;2689;50.954;7.116;2023-03-20T11:02:22;6.70;;;4.87;;
5333;SDS011;2689;50.954;7.116;2023-03-20T11:04:52;8.40;;;3.70;;
5333;SDS011;2689;50.954;7.116;2023-03-20T11:07:22;9.50;;;4.37;;
5333;SDS011;2689;50.954;7.116;2023-03-20T11:10:07;6.03;;;2.93;;
5333;SDS011;2689;50.954;7.116;2023-03-20T11:12:36;4.50;;;3.00;;
5333;SDS011;2689;50.954;7.116;2023-03-20T11:15:14;7.70;;;3.60;;
5333;SDS011;2689;50.954;7.116;2023-03-20T11:17:53;5.57;;;3.20;;
5333;SDS011;2689;50.954;7.116;2023-03-20T11:20:21;8.83;;;3.03;;
5333;SDS011;2689;50.954;7.116;2023-03-20T11:22:49;6.40;;;3.57;;
5333;SDS011;2689;50.954;7.116;2023-03-20T11:25:22;7.03;;;4.13;;
5333;SDS011;2689;50.954;7.116;2023-03-20T11:27:53;9.63;;;4.20;;
5333;SDS011;2689;50.954;7.116;2023-03-20T11:30:22;9.40;;;3.90;;
5333;SDS011;2689;50.954;7.116;2023-03-20T11:32:49;7.20;;;3.40;;
5333;SDS011;2689;50.954;7.116;2023-03-20T11:35:21;6.00;;;3.20;;
5333;SDS011;2689;50.954;7.116;2023-03-20T11:38:05;6.27;;;3.23;;
5333;SDS011;2689;50.954;7.116;2023-03-20T11:40:35;6.10;;;2.90;;
5333;SDS011;2689;50.954;7.116;2023-03-20T11:43:03;5.97;;;3.20;;
5333;SDS011;2689;50.954;7.116;2023-03-20T11:45:37;7.40;;;3.07;;
5333;SDS011;2689;50.954;7.116;2023-03-20T11:48:10;8.13;;;3.07;;
5333;SDS011;2689;50.954;7.116;2023-03-20T11:50:42;8.93;;;2.30;;
5333;SDS011;2689;50.954;7.116;2023-03-20T11:53:24;8.10;;;4.50;;
5333;SDS011;2689;50.954;7.116;2023-03-20T11:55:59;7.53;;;4.40;;
5333;SDS011;2689;50.954;7.116;2023-03-20T11:58:29;12.00;;;3.90;;
5333;SDS011;2689;50.954;7.116;2023-03-20T12:00:58;5.63;;;3.13;;
5333;SDS011;2689;50.954;7.116;2023-03-20T12:03:41;7.80;;;3.70;;
5333;SDS011;2689;50.954;7.116;2023-03-20T12:06:14;7.00;;;3.53;;
5333;SDS011;2689;50.954;7.116;2023-03-20T12:08:45;5.70;;;3.10;;
5333;SDS011;2689;50.954;7.116;2023-03-20T12:11:20;6.13;;;2.90;;
5333;SDS011;2689;50.954;7.116;2023-03-20T12:14:00;4.40;;;1.80;;
5333;SDS011;2689;50.954;7.116;2023-03-20T12:16:32;3.70;;;2.37;;
5333;SDS011;2689;50.954;7.116;2023-03-20T12:19:01;7.30;;;2.50;;
5333;SDS011;2689;50.954;7.116;2023-03-20T12:21:36;3.80;;;1.90;;
5333;SDS011;2689;50.954;7.116;2023-03-20T12:24:08;3.77;;;2.20;;
5333;SDS011;2689;50.954;7.116;2023-03-20T12:26:41;2.97;;;2.20;;
5333;SDS011;2689;50.954;7.116;2023-03-20T12:29:21;10.37;;;2.87;;
5333;SDS011;2689;50.954;7.116;2023-03-20T12:31:54;4.27;;;2.43;;
5333;SDS011;2689;50.954;7.116;2023-03-20T12:34:28;5.50;;;2.50;;
5333;SDS011;2689;50.954;7.116;2023-03-20T12:37:00;8.27;;;2.17;;
5333;SDS011;2689;50.954;7.116;2023-03-20T12:39:27;5.40;;;3.00;;
5333;SDS011;2689;50.954;7.116;2023-03-20T12:42:03;6.97;;;2.57;;
5333;SDS011;2689;50.954;7.116;2023-03-20T12:44:37;4.90;;;2.27;;
5333;SDS011;2689;50.954;7.116;2023-03-20T12:47:30;9.43;;;4.37;;
5333;SDS011;2689;50.954;7.116;2023-03-20T12:50:19;6.13;;;2.40;;
5333;SDS011;2689;50.954;7.116;2023-03-20T12:52:53;3.03;;;1.80;;
5333;SDS011;2689;50.954;7.116;2023-03-20T12:55:30;6.20;;;2.33;;
5333;SDS011;2689;50.954;7.116;2023-03-20T12:58:10;2.93;;;2.20;;
5333;SDS011;2689;50.954;7.116;2023-03-20T13:00:45;4.90;;;2.77;;
5333;SDS011;2689;50.954;7.116;2023-03-20T13:03:26;9.40;;;2.70;;
5333;SDS011;2689;50.954;7.116;2023-03-20T13:06:01;5.47;;;2.63;;
5333;SDS011;2689;50.954;7.116;2023-03-20T13:08:37;4.10;;;2.23;;
5333;SDS011;2689;50.954;7.116;2023-03-20T13:11:15;11.80;;;6.00;;
5333;SDS011;2689;50.954;7.116;2023-03-20T13:13:48;7.63;;;3.50;;
5333;SDS011;2689;50.954;7.116;2023-03-20T13:16:21;6.37;;;2.70;;
5333;SDS011;2689;50.954;7.116;2023-03-20T13:18:59;6.73;;;3.17;;
5333;SDS011;2689;50.954;7.116;2023-03-20T13:21:32;9.23;;;5.63;;
5333;SDS011;2689;50.954;7.116;2023-03-20T13:24:06;6.70;;;3.17;;
5333;SDS011;2689;50.954;7.116;2023-03-20T13:26:45;6.73;;;3.23;;
5333;SDS011;2689;50.954;7.116;2023-03-20T13:29:22;8.47;;;3.03;;
5333;SDS011;2689;50.954;7.116;2023-03-20T13:31:57;4.37;;;3.03;;
5333;SDS011;2689;50.954;7.116;2023-03-20T13:34:40;5.20;;;2.40;;
5333;SDS011;2689;50.954;7.116;2023-03-20T13:37:20;6.07;;;3.53;;
5333;SDS011;2689;50.954;7.116;2023-03-20T13:39:57;3.23;;;2.33;;
5333;SDS011;2689;50.954;7.116;2023-03-20T13:42:29;5.17;;;2.60;;
5333;SDS011;2689;50.954;7.116;2023-03-20T13:45:02;4.33;;;2.17;;
5333;SDS011;2689;50.954;7.116;2023-03-20T13:47:32;3.13;;;1.90;;
5333;SDS011;2689;50.954;7.116;2023-03-20T13:50:11;4.57;;;2.53;;
5333;SDS011;2689;50.954;7.116;2023-03-20T13:52:51;4.30;;;2.60;;
5333;SDS011;2689;50.954;7.116;2023-03-20T13:55:26;7.33;;;2.83;;
5333;SDS011;2689;50.954;7.116;2023-03-20T13:58:02;4.80;;;2.33;;
5333;SDS011;2689;50.954;7.116;2023-03-20T14:00:38;6.03;;;2.30;;
5333;SDS011;2689;50.954;7.116;2023-03-20T14:03:14;4.70;;;2.60;;
5333;SDS011;2689;50.954;7.116;2023-03-20T14:05:48;5.13;;;2.30;;
5333;SDS011;2689;50.954;7.116;2023-03-20T14:11:13;12.80;;;3.30;;
5333;SDS011;2689;50.954;7.116;2023-03-20T14:13:57;5.37;;;1.90;;
5333;SDS011;2689;50.954;7.116;2023-03-20T14:16:29;5.80;;;2.70;;
5333;SDS011;2689;50.954;7.116;2023-03-20T14:19:06;3.80;;;1.77;;
5333;SDS011;2689;50.954;7.116;2023-03-20T14:21:41;3.33;;;1.57;;
5333;SDS011;2689;50.954;7.116;2023-03-20T14:24:12;4.00;;;1.80;;
5333;SDS011;2689;50.954;7.116;2023-03-20T14:26:41;4.60;;;2.00;;
5333;SDS011;2689;50.954;7.116;2023-03-20T14:29:20;4.03;;;1.67;;
5333;SDS011;2689;50.954;7.116;2023-03-20T14:32:01;6.77;;;1.90;;
5333;SDS011;2689;50.954;7.116;2023-03-20T14:34:42;4.40;;;2.00;;
5333;SDS011;2689;50.954;7.116;2023-03-20T14:37:25;8.03;;;2.00;;
5333;SDS011;2689;50.954;7.116;2023-03-20T14:39:56;6.23;;;1.60;;
5333;SDS011;2689;50.954;7.116;2023-03-20T14:42:30;5.63;;;1.83;;
5333;SDS011;2689;50.954;7.116;2023-03-20T14:47:56;4.47;;;2.60;;
5333;SDS011;2689;50.954;7.116;2023-03-20T14:50:29;5.03;;;2.10;;
5333;SDS011;2689;50.954;7.116;2023-03-20T14:53:02;6.50;;;2.73;;
5333;SDS011;2689;50.954;7.116;2023-03-20T14:55:52;7.87;;;2.97;;
5333;SDS011;2689;50.954;7.116;2023-03-20T14:58:46;8.03;;;3.37;;
5333;SDS011;2689;50.954;7.116;2023-03-20T15:01:23;11.03;;;4.00;;
5333;SDS011;2689;50.954;7.116;2023-03-20T15:03:54;4.93;;;2.40;;
5333;SDS011;2689;50.954;7.116;2023-03-20T15:06:23;5.80;;;2.70;;
5333;SDS011;2689;50.954;7.116;2023-03-20T15:08:54;6.80;;;2.53;;
5333;SDS011;2689;50.954;7.116;2023-03-20T15:11:24;6.80;;;2.67;;
5333;SDS011;2689;50.954;7.116;2023-03-20T15:13:52;6.10;;;3.30;;
5333;SDS011;2689;50.954;7.116;2023-03-20T15:16:25;6.33;;;2.30;;
5333;SDS011;2689;50.954;7.116;2023-03-20T15:18:53;5.23;;;2.97;;
5333;SDS011;2689;50.954;7.116;2023-03-20T15:21:26;8.43;;;2.77;;
5333;SDS011;2689;50.954;7.116;2023-03-20T15:23:56;6.87;;;3.00;;
5333;SDS011;2689;50.954;7.116;2023-03-20T15:26:24;6.50;;;2.87;;
5333;SDS011;2689;50.954;7.116;2023-03-20T15:28:58;5.77;;;2.53;;
5333;SDS011;2689;50.954;7.116;2023-03-20T15:31:27;7.23;;;2.17;;
5333;SDS011;2689;50.954;7.116;2023-03-20T15:33:57;9.13;;;3.90;;
5333;SDS011;2689;50.954;7.116;2023-03-20T15:36:25;7.70;;;2.57;;
5333;SDS011;2689;50.954;7.116;2023-03-20T15:39:01;8.93;;;2.67;;
5333;SDS011;2689;50.954;7.116;2023-03-20T15:41:33;8.30;;;2.33;;
5333;SDS011;2689;50.954;7.116;2023-03-20T15:44:03;6.07;;;2.03;;